Latest Weather Observations for Fortescue Dave Forrest

IDW60801

Issued at 12:08 pm WST Thursday 30 July 2015 (issued every 30 minutes, with the page automatically refreshed every 10 minutes)

About weather observations | Map of weather stations | Latest weather observations for WA | Other Formats
Station Details ID: 505056 Name: FORTESCUE DAVE FORREST Lat: -22.29 Lon: 119.43 Height: 474.6 m
Data from the previous 72 hours. | See also: Recent months for locations in Western Australia
Date/Time
WST
Temp
°C
App
Temp
°C
Dew
Point
Rel
Hum
%
Delta-T
°C
Wind Press
QNH
hPa
Press
MSL
hPa
Rain
since 9 am
mm
Dir
 
Spd
km/h
Gust
km/h
Spd
kts
Gust
kts
30/12:00pm 27.2 24.3 4.5 23 11.7 N 9 22 5 12 1022.5 1021.8 0.0
30/11:30am 26.7 22.9 4.0 23 11.6 NE 13 22 7 12 1023.0 1022.3 0.0
30/11:00am 25.9 21.4 4.2 24 11.1 NE 17 26 9 14 1023.3 1022.6 0.0
30/10:30am 25.0 20.0 3.6 25 10.8 NE 19 24 10 13 1023.6 1023.0 0.0
30/10:00am 24.6 19.7 4.1 26 10.3 NE 19 26 10 14 1023.9 1023.3 0.0
30/09:30am 23.5 19.8 4.3 28 9.7 NE 13 20 7 11 1024.0 1023.4 0.0
30/09:00am 20.9 21.1 11.7 55 5.2 SE 2 6 1 3 1023.9 1023.3 0.0
30/08:30am 18.1 17.4 11.5 65 3.7 ESE 6 7 3 4 1023.4 1022.7 0.0
30/08:00am 16.4 16.2 11.7 74 2.6 ESE 4 6 2 3 1023.2 1022.5 0.0
30/07:30am 15.4 15.1 11.6 78 2.1 E 4 6 2 3 1022.8 1022.1 0.0
30/07:00am 12.8 12.6 10.5 86 1.2 S 2 4 1 2 1022.4 1021.7 0.0
30/06:30am 13.3 13.3 11.1 86 1.2 S 2 6 1 3 1022.0 1021.4 0.0
30/06:00am 13.4 13.2 10.3 81 1.6 ENE 2 2 1 1 1021.8 1021.2 0.0
30/05:30am 14.0 13.7 11.3 84 1.5 SSW 4 6 2 3 1021.5 1020.8 0.0
30/05:00am 14.5 14.3 10.5 77 2.1 S 2 4 1 2 1021.2 1020.5 0.0
30/04:30am 14.7 14.4 10.2 74 2.4 SSE 2 4 1 2 1021.0 1020.3 0.0
30/04:00am 15.0 15.0 11.1 77 2.1 SE 2 2 1 1 1021.1 1020.4 0.0
30/03:30am 15.4 15.2 10.3 71 2.7 SSW 2 4 1 2 1021.1 1020.4 0.0
30/03:00am 16.7 15.6 8.6 59 4.2 SE 4 6 2 3 1021.2 1020.5 0.0
30/02:30am 17.5 16.1 9.0 57 4.5 E 6 9 3 5 1021.3 1020.6 0.0
30/02:00am 18.1 16.9 8.2 52 5.2 E 4 7 2 4 1021.5 1020.8 0.0
30/01:30am 17.8 17.2 9.0 56 4.7 NE 2 4 1 2 1021.7 1021.0 0.0
30/01:00am 17.6 17.1 9.5 59 4.3 NNE 2 4 1 2 1021.9 1021.3 0.0
30/12:30am 17.9 16.9 9.0 56 4.7 NE 4 6 2 3 1022.1 1021.5 0.0
30/12:00am 17.9 17.2 10.1 60 4.2 NE 4 4 2 2 1022.4 1021.7 0.0
 
Date/Time
WST
Temp
°C
App
Temp
°C
Dew
Point
Rel
Hum
%
Delta-T
°C
Wind Press
QNH
hPa
Press
MSL
hPa
Rain
since 9 am
mm
Dir
 
Spd
km/h
Gust
km/h
Spd
kts
Gust
kts
29/11:30pm 17.9 17.3 10.4 61 4.1 ENE 4 6 2 3 1022.5 1021.8 0.0
29/11:00pm 19.1 18.5 10.4 57 4.8 ENE 4 6 2 3 1022.5 1021.8 0.0
29/10:30pm 18.8 18.3 10.8 59 4.4 ENE 4 6 2 3 1022.5 1021.8 0.0
29/10:00pm 18.6 18.6 11.3 62 4.1 E 2 7 1 4 1022.5 1021.8 0.0
29/09:30pm 18.3 18.5 11.7 65 3.7 SE 2 4 1 2 1022.5 1021.8 0.0
29/09:00pm 18.5 18.7 11.7 64 3.8 SE 2 4 1 2 1022.5 1021.8 0.0
29/08:30pm 20.0 20.0 11.0 56 5.0 SE 2 2 1 1 1022.6 1021.9 0.0
29/08:00pm 20.7 20.7 11.2 54 5.3 SSE 2 4 1 2 1022.2 1021.6 0.0
29/07:30pm 21.2 21.3 11.5 54 5.5 W 2 2 1 1 1022.0 1021.4 0.0
29/07:00pm 22.0 22.1 11.4 51 6.0 WNW 2 2 1 1 1021.7 1021.0 0.0
29/06:30pm 23.9 22.5 8.7 38 8.3 ESE 6 6 3 3 1021.3 1020.6 0.0
29/06:00pm 24.6 23.0 8.9 37 8.6 ESE 7 9 4 5 1021.0 1020.3 0.0
29/05:30pm 26.0 24.5 9.1 34 9.4 SE 7 9 4 5 1020.9 1020.2 0.0
29/05:00pm 27.8 26.4 8.9 30 10.6 SE 6 9 3 5 1020.7 1020.0 0.0
29/04:30pm 28.2 26.5 8.5 29 11.0 ESE 7 13 4 7 1020.7 1020.0 0.0
29/04:00pm 28.5 26.5 8.5 28 11.2 SE 9 15 5 8 1020.6 1019.9 0.0
29/03:30pm 28.7 27.0 8.4 28 11.3 SSE 7 19 4 10 1020.6 1019.9 0.0
29/03:00pm 29.1 27.5 7.9 26 11.7 SW 6 11 3 6 1020.6 1019.9 0.0
29/02:30pm 29.0 27.1 7.6 26 11.8 SSE 7 13 4 7 1020.8 1020.1 0.0
29/02:00pm 28.7 26.9 7.9 27 11.5 W 7 13 4 7 1020.9 1020.2 0.0
29/01:30pm 28.3 26.6 7.7 27 11.4 NNW 6 11 3 6 1021.3 1020.6 0.0
29/01:00pm 27.8 26.1 7.6 28 11.1 NNW 6 11 3 6 1021.9 1021.3 0.0
29/12:30pm 28.0 26.2 8.0 28 11.1 ESE 7 15 4 8 1022.5 1021.8 0.0
29/12:00pm 27.1 25.5 7.9 29 10.5 ESE 6 13 3 7 1023.0 1022.3 0.0
29/11:30am 26.7 25.2 8.6 32 10.0 NNW 6 11 3 6 1023.3 1022.6 0.0
29/11:00am 25.8 24.1 8.5 33 9.5 N 7 13 4 7 1023.7 1023.1 0.0
29/10:30am 25.5 23.0 8.3 33 9.4 NNE 11 15 6 8 1023.9 1023.3 0.0
29/10:00am 23.1 23.1 11.1 46 6.8 SSW 2 6 1 3 1024.2 1023.6 0.0
29/09:30am 21.2 21.2 11.3 53 5.6 ESE 2 6 1 3 1024.2 1023.6 0.0
29/09:00am 19.0 18.2 10.9 59 4.5 ESE 6 7 3 4 1024.1 1023.5 0.0
29/08:30am 17.0 16.3 11.5 70 3.1 E 6 7 3 4 1023.9 1023.3 0.0
29/08:00am 15.8 15.0 11.1 73 2.6 ESE 6 9 3 5 1023.6 1023.0 0.0
29/07:30am 13.6 13.5 10.7 82 1.6 WSW 2 4 1 2 1023.2 1022.5 0.0
29/07:00am 12.4 12.1 10.0 85 1.3 S 2 4 1 2 1022.8 1022.1 0.0
29/06:30am 13.0 12.4 10.3 84 1.4 ESE 4 7 2 4 1022.4 1021.7 0.0
29/06:00am 13.3 12.3 10.2 81 1.6 SSE 6 7 3 4 1022.1 1021.5 0.0
29/05:30am 14.2 13.7 9.3 72 2.6 SSE 2 4 1 2 1022.1 1021.5 0.0
29/05:00am 14.5 14.1 9.6 72 2.6 SSE 2 4 1 2 1022.1 1021.5 0.0
29/04:30am 14.2 13.7 9.5 73 2.5 SSE 2 2 1 1 1022.0 1021.4 0.0
29/04:00am 14.6 13.8 9.8 73 2.5 E 4 6 2 3 1022.2 1021.6 0.0
29/03:30am 14.5 14.2 10.0 74 2.4 ENE 2 4 1 2 1022.5 1021.8 0.0
29/03:00am 14.2 13.8 9.9 75 2.3 N 2 4 1 2 1022.5 1021.8 0.0
29/02:30am 15.1 14.8 10.2 72 2.6 ESE 2 4 1 2 1022.5 1021.8 0.0
29/02:00am 16.5 14.8 9.9 65 3.5 ESE 9 13 5 7 1022.5 1021.8 0.0
29/01:30am 14.4 13.8 10.5 77 2.1 SE 4 6 2 3 1022.9 1022.2 0.0
29/01:00am 15.1 14.6 10.7 75 2.4 ESE 4 6 2 3 1023.2 1022.5 0.0
29/12:30am 15.5 15.4 10.8 73 2.6 SE 2 4 1 2 1023.4 1022.7 0.0
29/12:00am 15.6 15.5 10.7 72 2.7 WNW 2 2 1 1 1023.5 1022.8 0.0
 
Date/Time
WST
Temp
°C
App
Temp
°C
Dew
Point
Rel
Hum
%
Delta-T
°C
Wind Press
QNH
hPa
Press
MSL
hPa
Rain
since 9 am
mm
Dir
 
Spd
km/h
Gust
km/h
Spd
kts
Gust
kts
28/11:30pm 15.9 15.8 10.8 71 2.8 W 2 4 1 2 1023.5 1022.8 0.0
28/11:00pm 15.8 15.8 11.1 73 2.6 WSW 2 2 1 1 1023.6 1023.0 0.0
28/10:30pm 16.7 16.3 11.1 69 3.1 SE 4 4 2 2 1023.7 1023.1 0.0
28/10:00pm 17.3 17.2 10.9 66 3.5 NE 2 4 1 2 1023.7 1023.1 0.0
28/09:30pm 16.8 16.5 11.3 70 3.0 N 4 6 2 3 1023.6 1023.0 0.0
28/09:00pm 18.4 18.2 10.4 59 4.4 N 2 2 1 1 1023.6 1023.0 0.0
28/08:30pm 18.9 18.9 11.0 60 4.4 SSW 2 4 1 2 1023.5 1022.8 0.0
28/08:00pm 19.1 18.8 11.5 61 4.3 SW 4 6 2 3 1023.3 1022.6 0.0
28/07:30pm 19.3 18.5 11.2 59 4.5 WSW 6 11 3 6 1022.9 1022.2 0.0
28/07:00pm 21.0 20.9 10.8 52 5.7 NNW 2 6 1 3 1022.6 1021.9 0.0
28/06:30pm 22.5 21.9 10.4 46 6.8 WSW 4 4 2 2 1022.5 1021.8 0.0
28/06:00pm 24.0 24.3 10.8 43 7.5 CALM 0 2 0 1 1022.4 1021.7 0.0
28/05:30pm 26.4 25.6 8.1 31 10.1 N 2 4 1 2 1022.1 1021.5 0.0
28/05:00pm 27.0 25.8 6.5 27 11.0 NE 2 6 1 3 1021.9 1021.3 0.0
28/04:30pm 27.8 26.3 6.8 26 11.4 NNW 4 7 2 4 1021.7 1021.0 0.0
28/04:00pm 27.7 25.9 7.1 27 11.2 NW 6 13 3 7 1021.6 1020.9 0.0
28/03:30pm 27.2 24.8 6.9 27 11.0 N 9 15 5 8 1021.6 1020.9 0.0
28/03:00pm 27.4 25.6 7.0 27 11.0 NE 6 20 3 11 1021.6 1020.9 0.0
28/02:30pm 26.8 24.9 6.8 28 10.8 WNW 6 17 3 9 1021.8 1021.2 0.0
28/02:00pm 27.3 25.6 7.5 28 10.8 N 6 17 3 9 1022.0 1021.4 0.0
28/01:30pm 26.2 23.8 7.0 29 10.3 N 9 17 5 9 1022.4 1021.7 0.0
28/01:00pm 25.9 24.0 6.9 29 10.2 NNE 6 13 3 7 1022.8 1022.1 0.0
28/12:30pm 25.4 22.5 6.7 30 10.0 NNE 11 20 6 11 1023.1 1022.4 0.0
28/12:00pm 24.7 21.5 6.8 31 9.5 NE 13 20 7 11 1023.7 1023.1 0.0
28/11:30am 24.3 21.8 6.7 32 9.3 ENE 9 20 5 11 1024.4 1023.8 0.0
28/11:00am 23.4 19.8 6.6 34 8.8 ENE 15 33 8 18 1024.9 1024.2 0.0
28/10:30am 21.9 19.2 7.3 39 7.7 E 11 20 6 11 1025.0 1024.3 0.0
28/10:00am 18.2 15.9 7.5 49 5.5 ESE 9 13 5 7 1025.5 1024.9 0.0
28/09:30am 16.0 13.6 7.1 55 4.5 ESE 9 15 5 8 1025.8 1025.2 0.0
28/09:00am 14.3 11.8 6.5 59 3.8 ESE 9 15 5 8 1025.7 1025.1 0.0
28/08:30am 13.1 10.7 6.8 65 3.1 SE 9 13 5 7 1025.6 1025.0 0.0
28/08:00am 11.6 8.7 6.4 70 2.5 SE 11 17 6 9 1025.6 1025.0 0.0
28/07:30am 10.4 8.3 6.7 78 1.8 SE 7 11 4 6 1025.5 1024.9 0.0
28/07:00am 8.8 7.2 6.3 84 1.2 ESE 4 6 2 3 1025.1 1024.4 0.0
28/06:30am 8.9 7.2 6.0 82 1.4 ESE 4 6 2 3 1024.9 1024.2 0.0
28/06:00am 9.0 7.0 6.1 82 1.4 SE 6 7 3 4 1024.8 1024.1 0.0
28/05:30am 9.0 7.4 6.2 82 1.3 ESE 4 6 2 3 1024.4 1023.8 0.0
28/05:00am 9.3 7.1 6.1 80 1.5 SE 7 11 4 6 1024.3 1023.7 0.0
28/04:30am 9.5 7.4 6.0 79 1.7 SE 6 9 3 5 1024.2 1023.6 0.0
28/04:00am 9.7 7.5 6.0 78 1.7 SSE 7 11 4 6 1024.3 1023.7 0.0
28/03:30am 10.0 7.4 6.1 77 1.9 SSE 9 13 5 7 1024.3 1023.7 0.0
28/03:00am 10.3 7.7 6.1 75 2.0 SE 9 13 5 7 1024.3 1023.7 0.0
28/02:30am 10.5 7.9 6.0 74 2.1 SSE 9 15 5 8 1024.4 1023.8 0.0
28/02:00am 10.8 8.2 6.1 73 2.2 SSE 9 13 5 7 1024.5 1023.9 0.0
28/01:30am 11.0 8.4 6.2 72 2.3 SSE 9 13 5 7 1024.8 1024.1 0.0
28/01:00am 11.2 9.0 6.1 71 2.4 SSE 7 11 4 6 1025.1 1024.4 0.0
28/12:30am 11.5 9.2 5.9 68 2.7 SE 7 11 4 6 1025.2 1024.5 0.0
28/12:00am 11.9 9.6 5.8 66 2.9 SE 7 9 4 5 1025.4 1024.7 0.0
 
Date/Time
WST
Temp
°C
App
Temp
°C
Dew
Point
Rel
Hum
%
Delta-T
°C
Wind Press
QNH
hPa
Press
MSL
hPa
Rain
since 9 am
mm
Dir
 
Spd
km/h
Gust
km/h
Spd
kts
Gust
kts
27/11:30pm 12.4 9.7 5.7 63 3.2 SE 9 11 5 6 1025.6 1025.0 0.0
27/11:00pm 12.6 10.5 5.9 63 3.2 SSE 6 9 3 5 1025.7 1025.1 0.0
27/10:30pm 13.0 10.8 6.4 64 3.2 SSE 7 9 4 5 1025.7 1025.1 0.0
27/10:00pm 13.6 11.5 5.7 59 3.8 SE 6 9 3 5 1025.5 1024.9 0.0
27/09:30pm 14.4 11.5 4.6 51 4.7 SE 9 13 5 7 1025.5 1024.9 0.0
27/09:00pm 15.4 12.0 4.1 47 5.3 SE 11 13 6 7 1025.5 1024.9 0.0
27/08:30pm 16.3 12.5 4.1 44 5.8 ESE 13 15 7 8 1025.5 1024.9 0.0
27/08:00pm 16.1 12.8 4.5 46 5.6 ESE 11 13 6 7 1025.3 1024.6 0.0
27/07:30pm 16.0 13.7 4.7 47 5.5 ESE 6 7 3 4 1024.9 1024.2 0.0
27/07:00pm 16.3 14.0 4.7 46 5.6 SE 6 9 3 5 1024.5 1023.9 0.0
27/06:30pm 17.6 15.0 4.1 40 6.5 SE 7 11 4 6 1024.2 1023.6 0.0
27/06:00pm 18.7 15.6 3.5 36 7.3 SE 9 11 5 6 1024.0 1023.4 0.0
27/05:30pm 20.8 16.4 2.8 30 8.7 ESE 15 20 8 11 1023.6 1023.0 0.0
27/05:00pm 21.8 16.7 2.9 29 9.2 ESE 19 26 10 14 1023.4 1022.7 0.0
27/04:30pm 22.3 16.6 3.0 28 9.4 ESE 22 30 12 16 1023.2 1022.5 0.0
27/04:00pm 22.5 17.2 2.9 27 9.5 SE 20 30 11 16 1023.2 1022.5 0.0
27/03:30pm 22.6 17.3 3.1 28 9.6 ESE 20 28 11 15 1023.3 1022.6 0.0
27/03:00pm 22.4 16.7 2.9 27 9.5 ESE 22 30 12 16 1023.3 1022.6 0.0
27/02:30pm 22.0 16.3 3.1 29 9.2 ESE 22 37 12 20 1023.4 1022.7 0.0
27/02:00pm 22.1 16.5 3.4 29 9.2 ESE 22 33 12 18 1023.7 1023.1 0.0
27/01:30pm 21.6 16.1 3.8 31 8.8 ESE 22 32 12 17 1024.2 1023.6 0.0
27/01:00pm 21.0 15.9 4.2 33 8.3 ESE 20 28 11 15 1024.8 1024.1 0.0
27/12:30pm 20.2 14.9 5.0 37 7.6 ESE 22 32 12 17 1025.4 1024.7 0.0

Other Formats:

Comma delimited format used in spreadsheet applications
http://www.bom.gov.au/fwo/IDW60801/IDW60801.99736.axf

JavaScript Object Notation format (JSON) in row-major order
http://www.bom.gov.au/fwo/IDW60801/IDW60801.99736.json